createdAt,value
2023-02-11T00:01:14.471Z,102266.41
2023-02-11T00:03:41.554Z,102278.72
2023-02-11T00:06:12.053Z,102279.69
2023-02-11T00:08:39.669Z,102282.44
2023-02-11T00:11:06.769Z,102282.50
2023-02-11T00:13:33.734Z,102279.03
2023-02-11T00:16:00.661Z,102279.97
2023-02-11T00:18:28.359Z,102281.75
2023-02-11T00:20:55.370Z,102278.28
2023-02-11T00:23:25.572Z,102277.44
2023-02-11T00:25:52.730Z,102279.28
2023-02-11T00:28:19.828Z,102282.00
2023-02-11T00:30:54.990Z,102291.75
2023-02-11T00:33:22.002Z,102296.22
2023-02-11T00:35:49.241Z,102293.56
2023-02-11T00:38:16.770Z,102301.53
2023-02-11T00:40:43.703Z,102297.16
2023-02-11T00:43:10.724Z,102288.47
2023-02-11T00:45:37.798Z,102292.84
2023-02-11T00:48:04.682Z,102289.34
2023-02-11T00:50:31.604Z,102297.38
2023-02-11T00:52:58.656Z,102297.44
2023-02-11T00:55:25.577Z,102308.03
2023-02-11T00:57:52.548Z,102306.28
2023-02-11T01:00:19.679Z,102314.22
2023-02-11T01:02:46.589Z,102318.72
2023-02-11T01:05:13.589Z,102324.00
2023-02-11T01:07:40.539Z,102326.66
2023-02-11T01:10:07.732Z,102326.75
2023-02-11T01:12:36.511Z,102318.78
2023-02-11T01:15:04.775Z,102327.66
2023-02-11T01:17:31.623Z,102325.88
2023-02-11T01:19:58.551Z,102317.09
2023-02-11T01:22:25.475Z,102314.47
2023-02-11T01:24:52.384Z,102310.03
2023-02-11T01:27:19.352Z,102312.75
2023-02-11T01:29:46.308Z,102315.41
2023-02-11T01:32:13.403Z,102310.13
2023-02-11T01:34:40.324Z,102301.31
2023-02-11T01:37:07.291Z,102298.75
2023-02-11T01:39:35.243Z,102291.66
2023-02-11T01:42:02.346Z,102289.94
2023-02-11T01:44:33.706Z,102286.41
2023-02-11T01:47:00.866Z,102292.53
2023-02-11T01:49:31.629Z,102289.06
2023-02-11T01:52:13.914Z,102290.88
2023-02-11T01:55:06.625Z,102297.94
2023-02-11T01:57:36.488Z,102286.47
2023-02-11T02:00:09.685Z,102287.38
2023-02-11T02:02:49.662Z,102290.94
2023-02-11T02:05:49.264Z,102279.50
2023-02-11T02:08:35.633Z,102283.00
2023-02-11T02:11:03.673Z,102287.44
2023-02-11T02:13:33.920Z,102290.97
2023-02-11T02:16:15.019Z,102293.63
2023-02-11T02:19:00.440Z,102283.97
2023-02-11T02:21:56.896Z,102291.84
2023-02-11T02:24:56.892Z,102307.72
2023-02-11T02:27:26.501Z,102313.91
2023-02-11T02:30:30.820Z,102311.28
2023-02-11T02:33:22.423Z,102310.44
2023-02-11T02:35:52.570Z,102319.22
2023-02-11T02:38:28.353Z,102324.56
2023-02-11T02:41:01.827Z,102318.38
2023-02-11T02:43:30.850Z,102340.44
2023-02-11T02:46:14.717Z,102339.56
2023-02-11T02:48:42.267Z,102338.69
2023-02-11T02:51:28.007Z,102340.44
2023-02-11T02:54:07.174Z,102347.47
2023-02-11T02:56:39.231Z,102346.59
2023-02-11T02:59:27.348Z,102332.44
2023-02-11T03:02:39.115Z,102331.59
2023-02-11T03:05:05.982Z,102332.50
2023-02-11T03:07:32.775Z,102329.84
2023-02-11T03:10:11.204Z,102321.03
2023-02-11T03:12:39.509Z,102327.22
2023-02-11T03:15:07.422Z,102317.53
2023-02-11T03:17:36.529Z,102329.84
2023-02-11T03:20:06.693Z,102321.91
2023-02-11T03:22:51.072Z,102322.81
2023-02-11T03:25:18.432Z,102324.56
2023-02-11T03:27:57.951Z,102334.34
2023-02-11T03:30:38.942Z,102327.22
2023-02-11T03:33:27.714Z,102345.75
2023-02-11T03:36:00.504Z,102344.91
2023-02-11T03:38:32.017Z,102347.50
2023-02-11T03:41:02.410Z,102341.41
2023-02-11T03:43:42.252Z,102348.38
2023-02-11T03:46:11.698Z,102341.31
2023-02-11T03:48:42.423Z,102352.84
2023-02-11T03:51:12.856Z,102356.31
2023-02-11T03:53:43.434Z,102356.31
2023-02-11T03:56:17.206Z,102353.69
2023-02-11T03:58:48.895Z,102354.63
2023-02-11T04:01:16.623Z,102354.56
2023-02-11T04:03:43.490Z,102340.50
2023-02-11T04:06:10.427Z,102343.16
2023-02-11T04:08:37.423Z,102344.91
2023-02-11T04:11:04.475Z,102345.75
2023-02-11T04:13:31.399Z,102351.03
2023-02-11T04:15:58.287Z,102338.69
2023-02-11T04:18:25.202Z,102344.00
2023-02-11T04:20:52.151Z,102344.88
2023-02-11T04:23:19.069Z,102351.91
2023-02-11T04:25:45.898Z,102356.31
2023-02-11T04:28:12.957Z,102352.78
2023-02-11T04:30:39.856Z,102359.84
2023-02-11T04:33:06.767Z,102359.88
2023-02-11T04:35:33.612Z,102365.16
2023-02-11T04:38:00.478Z,102374.78
2023-02-11T04:40:27.463Z,102372.19
2023-02-11T04:42:54.355Z,102381.03
2023-02-11T04:45:21.250Z,102388.06
2023-02-11T04:47:48.112Z,102393.44
2023-02-11T04:50:15.137Z,102389.84
2023-02-11T04:52:41.967Z,102388.97
2023-02-11T04:55:09.094Z,102388.06
2023-02-11T04:57:36.057Z,102396.91
2023-02-11T05:00:03.169Z,102393.38
2023-02-11T05:02:29.990Z,102400.50
2023-02-11T05:04:56.896Z,102408.38
2023-02-11T05:07:23.852Z,102398.72
2023-02-11T05:09:50.719Z,102400.50
2023-02-11T05:12:17.982Z,102401.38
2023-02-11T05:14:44.782Z,102402.22
2023-02-11T05:17:11.682Z,102408.34
2023-02-11T05:19:38.705Z,102404.84
2023-02-11T05:22:05.625Z,102411.94
2023-02-11T05:24:32.603Z,102421.59
2023-02-11T05:27:00.164Z,102424.25
2023-02-11T05:29:27.385Z,102420.78
2023-02-11T05:31:54.306Z,102431.41
2023-02-11T05:34:21.297Z,102429.53
2023-02-11T05:36:48.216Z,102428.66
2023-02-11T05:39:15.067Z,102432.25
2023-02-11T05:41:41.911Z,102434.84
2023-02-11T05:44:08.764Z,102433.97
2023-02-11T05:46:35.739Z,102436.56
2023-02-11T05:49:02.605Z,102437.53
2023-02-11T05:51:29.492Z,102433.06
2023-02-11T05:53:56.305Z,102439.25
2023-02-11T05:56:23.205Z,102439.25
2023-02-11T05:58:50.039Z,102441.91
2023-02-11T06:01:16.934Z,102445.47
2023-02-11T06:03:43.797Z,102447.19
2023-02-11T06:06:12.151Z,102451.59
2023-02-11T06:08:39.651Z,102453.31
2023-02-11T06:11:06.947Z,102454.31
2023-02-11T06:13:33.748Z,102456.09
2023-02-11T06:16:02.185Z,102452.56
2023-02-11T06:18:29.792Z,102451.66
2023-02-11T06:20:57.017Z,102446.38
2023-02-11T06:23:23.894Z,102447.25
2023-02-11T06:25:51.857Z,102446.28
2023-02-11T06:28:19.470Z,102449.75
2023-02-11T06:30:46.377Z,102453.22
2023-02-11T06:33:13.292Z,102456.72
2023-02-11T06:35:40.329Z,102453.22
2023-02-11T06:38:07.664Z,102458.47
2023-02-11T06:40:34.729Z,102472.59
2023-02-11T06:43:01.608Z,102475.16
2023-02-11T06:45:28.515Z,102481.34
2023-02-11T06:47:55.542Z,102476.88
2023-02-11T06:50:22.581Z,102483.09
2023-02-11T06:52:49.454Z,102489.13
2023-02-11T06:55:17.220Z,102486.50
2023-02-11T06:57:44.048Z,102491.88
2023-02-11T07:00:11.749Z,102495.41
2023-02-11T07:02:38.618Z,102485.81
2023-02-11T07:05:07.041Z,102482.25
2023-02-11T07:07:34.429Z,102486.63
2023-02-11T07:10:03.304Z,102490.19
2023-02-11T07:12:31.312Z,102485.75
2023-02-11T07:14:58.269Z,102485.75
2023-02-11T07:17:25.186Z,102484.88
2023-02-11T07:19:52.103Z,102493.75
2023-02-11T07:22:19.021Z,102500.75
2023-02-11T07:24:46.173Z,102505.19
2023-02-11T07:27:13.114Z,102505.19
2023-02-11T07:29:40.212Z,102501.63
2023-02-11T07:32:07.284Z,102498.09
2023-02-11T07:34:34.470Z,102506.94
2023-02-11T07:37:01.439Z,102502.50
2023-02-11T07:39:28.385Z,102507.81
2023-02-11T07:41:55.484Z,102508.69
2023-02-11T07:44:22.574Z,102507.81
2023-02-11T07:46:49.670Z,102510.41
2023-02-11T07:49:16.956Z,102507.75
2023-02-11T07:51:43.838Z,102506.94
2023-02-11T07:54:12.476Z,102514.84
2023-02-11T07:56:39.501Z,102520.97
2023-02-11T07:59:06.392Z,102519.19
2023-02-11T08:01:33.343Z,102517.38
2023-02-11T08:04:02.143Z,102532.28
2023-02-11T08:06:31.564Z,102527.88
2023-02-11T08:08:58.806Z,102527.88
2023-02-11T08:11:28.822Z,102520.66
2023-02-11T08:13:57.048Z,102518.84
2023-02-11T08:16:28.715Z,102521.41
2023-02-11T08:19:01.973Z,102523.97
2023-02-11T08:21:30.046Z,102528.31
2023-02-11T08:23:57.487Z,102525.66
2023-02-11T08:26:29.076Z,102527.34
2023-02-11T08:28:57.310Z,102529.84
2023-02-11T08:31:30.400Z,102537.78
2023-02-11T08:33:58.481Z,102530.72
2023-02-11T08:36:29.430Z,102531.47
2023-02-11T08:39:16.123Z,102542.88
2023-02-11T08:41:46.901Z,102544.63
2023-02-11T08:44:13.892Z,102538.41
2023-02-11T08:46:40.735Z,102544.47
2023-02-11T08:49:07.709Z,102551.53
2023-02-11T08:51:34.779Z,102545.25
2023-02-11T08:54:02.353Z,102557.53
2023-02-11T08:56:31.722Z,102565.41
2023-02-11T08:58:58.821Z,102576.81
2023-02-11T09:01:29.051Z,102572.34
2023-02-11T09:03:57.260Z,102576.72
2023-02-11T09:06:25.210Z,102578.47
2023-02-11T09:08:54.697Z,102583.66
2023-02-11T09:11:27.311Z,102587.97
2023-02-11T09:13:54.769Z,102585.31
2023-02-11T09:16:28.070Z,102597.69
2023-02-11T09:18:57.960Z,102591.44
2023-02-11T09:21:25.056Z,102591.41
2023-02-11T09:23:52.119Z,102597.75
2023-02-11T09:26:22.063Z,102601.31
2023-02-11T09:28:50.188Z,102603.06
2023-02-11T09:31:20.388Z,102602.97
2023-02-11T09:33:49.184Z,102610.91
2023-02-11T09:36:25.294Z,102617.06
2023-02-11T09:38:53.039Z,102609.97
2023-02-11T09:41:26.071Z,102619.56
2023-02-11T09:44:06.441Z,102614.25
2023-02-11T09:46:38.163Z,102622.16
2023-02-11T09:49:06.616Z,102625.66
2023-02-11T09:51:43.452Z,102629.13
2023-02-11T09:54:23.010Z,102629.94
2023-02-11T09:56:49.977Z,102633.47
2023-02-11T09:59:17.974Z,102630.88
2023-02-11T10:01:50.746Z,102633.53
2023-02-11T10:04:20.394Z,102641.47
2023-02-11T10:07:15.477Z,102636.34
2023-02-11T10:09:55.301Z,102638.09
2023-02-11T10:12:54.216Z,102636.28
2023-02-11T10:15:24.004Z,102636.19
2023-02-11T10:18:17.776Z,102634.44
2023-02-11T10:21:17.185Z,102639.72
2023-02-11T10:23:48.991Z,102644.06
2023-02-11T10:26:18.229Z,102656.34
2023-02-11T10:28:50.647Z,102656.34
2023-02-11T10:31:23.648Z,102655.47
2023-02-11T10:34:12.529Z,102655.38
2023-02-11T10:36:42.360Z,102661.66
2023-02-11T10:39:24.287Z,102663.34
2023-02-11T10:41:55.745Z,102665.03
2023-02-11T10:44:22.616Z,102669.47
2023-02-11T10:46:51.219Z,102665.88
2023-02-11T10:49:45.541Z,102672.84
2023-02-11T10:52:18.195Z,102672.91
2023-02-11T10:55:01.405Z,102679.97
2023-02-11T10:57:33.207Z,102687.00
2023-02-11T11:00:06.891Z,102688.81
2023-02-11T11:02:38.997Z,102693.16
2023-02-11T11:05:21.552Z,102701.94
2023-02-11T11:08:00.270Z,102709.84
2023-02-11T11:10:43.734Z,102688.56
2023-02-11T11:13:31.010Z,102693.09
2023-02-11T11:16:17.891Z,102686.13
2023-02-11T11:18:50.040Z,102697.59
2023-02-11T11:21:23.169Z,102689.72
2023-02-11T11:24:01.794Z,102699.50
2023-02-11T11:26:40.980Z,102696.91
2023-02-11T11:29:29.029Z,102690.78
2023-02-11T11:31:59.696Z,102697.88
2023-02-11T11:34:38.537Z,102690.88
2023-02-11T11:37:38.512Z,102690.91
2023-02-11T11:40:11.241Z,102692.72
2023-02-11T11:42:40.203Z,102696.28
2023-02-11T11:45:16.293Z,102684.84
2023-02-11T11:47:53.199Z,102683.16
2023-02-11T11:50:44.335Z,102686.63
2023-02-11T11:53:21.107Z,102683.19
2023-02-11T11:56:00.274Z,102690.28
2023-02-11T11:58:29.546Z,102681.44
2023-02-11T12:01:05.419Z,102687.66
2023-02-11T12:04:01.685Z,102685.94
2023-02-11T12:06:32.079Z,102683.28
2023-02-11T12:09:19.640Z,102668.28
2023-02-11T12:12:05.172Z,102672.75
2023-02-11T12:14:44.584Z,102670.13
2023-02-11T12:17:47.076Z,102660.47
2023-02-11T12:20:51.201Z,102664.03
2023-02-11T12:23:37.914Z,102663.16
2023-02-11T12:26:16.995Z,102661.44
2023-02-11T12:29:02.352Z,102654.38
2023-02-11T12:31:35.750Z,102652.66
2023-02-11T12:34:31.331Z,102647.38
2023-02-11T12:37:08.018Z,102641.94
2023-02-11T12:39:45.809Z,102638.31
2023-02-11T12:43:02.145Z,102642.66
2023-02-11T12:45:55.807Z,102631.19
2023-02-11T12:48:45.540Z,102640.88
2023-02-11T12:51:32.304Z,102650.59
2023-02-11T12:54:24.674Z,102637.31
2023-02-11T12:56:54.049Z,102633.03
2023-02-11T12:59:20.840Z,102647.16
2023-02-11T13:01:50.654Z,102640.16
2023-02-11T13:04:17.554Z,102641.94
2023-02-11T13:06:52.114Z,102654.28
2023-02-11T13:09:25.512Z,102649.97
2023-02-11T13:11:57.720Z,102653.41
2023-02-11T13:14:37.154Z,102654.25
2023-02-11T13:17:18.051Z,102650.75
2023-02-11T13:19:52.752Z,102647.16
2023-02-11T13:22:38.881Z,102630.38
2023-02-11T13:25:14.420Z,102639.22
2023-02-11T13:27:41.393Z,102647.16
2023-02-11T13:30:25.338Z,102644.56
2023-02-11T13:32:55.140Z,102649.00
2023-02-11T13:35:34.436Z,102654.28
2023-02-11T13:38:17.861Z,102639.31
2023-02-11T13:40:45.794Z,102638.47
2023-02-11T13:43:25.028Z,102637.41
2023-02-11T13:45:58.045Z,102637.28
2023-02-11T13:48:47.221Z,102628.41
2023-02-11T13:51:17.765Z,102637.16
2023-02-11T13:53:54.507Z,102629.19
2023-02-11T13:56:44.394Z,102639.72
2023-02-11T13:59:33.199Z,102630.03
2023-02-11T14:02:18.735Z,102623.03
2023-02-11T14:05:22.671Z,102628.31
2023-02-11T14:08:26.239Z,102629.13
2023-02-11T14:10:57.209Z,102637.91
2023-02-11T14:13:34.444Z,102629.88
2023-02-11T14:16:22.649Z,102623.59
2023-02-11T14:18:55.107Z,102633.25
2023-02-11T14:21:28.358Z,102621.69
2023-02-11T14:24:15.279Z,102626.09
2023-02-11T14:26:47.170Z,102633.97
2023-02-11T14:29:26.158Z,102626.09
2023-02-11T14:31:56.041Z,102642.97
2023-02-11T14:34:47.207Z,102636.81
2023-02-11T14:37:30.668Z,102643.09
2023-02-11T14:40:16.207Z,102642.25
2023-02-11T14:42:43.734Z,102647.75
2023-02-11T14:45:19.046Z,102649.63
2023-02-11T14:47:55.741Z,102653.19
2023-02-11T14:50:41.293Z,102657.69
2023-02-11T14:53:13.547Z,102660.41
2023-02-11T14:55:43.533Z,102651.66
2023-02-11T14:58:15.675Z,102659.53
2023-02-11T15:00:55.471Z,102659.47
2023-02-11T15:03:42.774Z,102657.75
2023-02-11T15:06:23.524Z,102656.03
2023-02-11T15:08:54.431Z,102661.34
2023-02-11T15:11:24.288Z,102653.41
2023-02-11T15:13:55.064Z,102659.50
2023-02-11T15:16:26.249Z,102659.53
2023-02-11T15:18:56.938Z,102666.56
2023-02-11T15:21:32.702Z,102665.69
2023-02-11T15:24:06.266Z,102670.03
2023-02-11T15:26:33.944Z,102669.97
2023-02-11T15:29:01.239Z,102674.34
2023-02-11T15:31:30.428Z,102674.38
2023-02-11T15:34:08.115Z,102679.66
2023-02-11T15:36:36.639Z,102681.41
2023-02-11T15:39:31.754Z,102667.25
2023-02-11T15:42:51.878Z,102676.91
2023-02-11T15:45:29.267Z,102682.22
2023-02-11T15:48:13.435Z,102686.63
2023-02-11T15:50:43.077Z,102692.78
2023-02-11T15:53:34.649Z,102695.38
2023-02-11T15:56:01.312Z,102693.63
2023-02-11T15:58:28.354Z,102697.06
2023-02-11T16:00:59.937Z,102699.81
2023-02-11T16:03:33.043Z,102685.66
2023-02-11T16:06:17.221Z,102697.06
2023-02-11T16:08:57.317Z,102698.91
2023-02-11T16:11:36.257Z,102695.31
2023-02-11T16:14:39.536Z,102694.50
2023-02-11T16:17:12.873Z,102694.56
2023-02-11T16:19:49.213Z,102698.91
2023-02-11T16:22:20.745Z,102700.69
2023-02-11T16:24:50.136Z,102698.84
2023-02-11T16:27:40.841Z,102713.03
2023-02-11T16:30:37.783Z,102713.06
2023-02-11T16:33:05.746Z,102710.47
2023-02-11T16:35:33.315Z,102727.19
2023-02-11T16:38:00.612Z,102725.44
2023-02-11T16:40:27.796Z,102733.38
2023-02-11T16:42:54.840Z,102734.25
2023-02-11T16:45:21.902Z,102736.09
2023-02-11T16:47:49.058Z,102731.66
2023-02-11T16:50:23.317Z,102739.47
2023-02-11T16:52:52.562Z,102739.47
2023-02-11T16:55:22.079Z,102729.69
2023-02-11T16:57:49.236Z,102720.72
2023-02-11T17:00:17.148Z,102720.56
2023-02-11T17:02:44.426Z,102730.06
2023-02-11T17:05:20.535Z,102729.06
2023-02-11T17:07:47.670Z,102736.94
2023-02-11T17:10:17.306Z,102742.91
2023-02-11T17:12:44.248Z,102740.13
2023-02-11T17:15:11.356Z,102754.16
2023-02-11T17:17:38.374Z,102755.78
2023-02-11T17:20:07.150Z,102769.75
2023-02-11T17:22:34.773Z,102776.63
2023-02-11T17:25:01.717Z,102782.69
2023-02-11T17:27:28.698Z,102786.06
2023-02-11T17:29:55.758Z,102786.84
2023-02-11T17:32:22.732Z,102782.22
2023-02-11T17:34:49.788Z,102792.66
2023-02-11T17:37:17.334Z,102800.47
2023-02-11T17:39:44.962Z,102799.38
2023-02-11T17:42:12.227Z,102800.97
2023-02-11T17:44:39.237Z,102807.88
2023-02-11T17:47:06.380Z,102804.19
2023-02-11T17:49:33.411Z,102815.44
2023-02-11T17:52:00.617Z,102816.25
2023-02-11T17:54:27.681Z,102811.63
2023-02-11T17:56:58.127Z,102823.00
2023-02-11T17:59:26.208Z,102826.41
2023-02-11T18:01:53.140Z,102817.41
2023-02-11T18:04:20.652Z,102821.72
2023-02-11T18:06:47.760Z,102826.09
2023-02-11T18:09:14.892Z,102827.75
2023-02-11T18:11:42.063Z,102832.94
2023-02-11T18:14:10.337Z,102835.50
2023-02-11T18:16:39.609Z,102828.31
2023-02-11T18:19:07.907Z,102831.78
2023-02-11T18:21:35.477Z,102829.28
2023-02-11T18:24:06.461Z,102827.31
2023-02-11T18:26:34.235Z,102826.34
2023-02-11T18:29:01.226Z,102833.47
2023-02-11T18:31:28.618Z,102836.03
2023-02-11T18:33:56.289Z,102833.34
2023-02-11T18:36:23.757Z,102833.22
2023-02-11T18:38:52.849Z,102837.59
2023-02-11T18:41:20.257Z,102838.50
2023-02-11T18:43:47.191Z,102837.59
2023-02-11T18:46:15.922Z,102843.81
2023-02-11T18:48:44.987Z,102847.44
2023-02-11T18:51:15.201Z,102841.34
2023-02-11T18:53:42.785Z,102850.19
2023-02-11T18:56:16.255Z,102856.63
2023-02-11T18:58:43.614Z,102858.31
2023-02-11T19:01:17.096Z,102852.38
2023-02-11T19:03:45.437Z,102848.78
2023-02-11T19:06:21.987Z,102845.22
2023-02-11T19:08:49.080Z,102857.69
2023-02-11T19:11:18.242Z,102855.16
2023-02-11T19:13:48.699Z,102849.19
2023-02-11T19:16:18.128Z,102856.28
2023-02-11T19:18:45.035Z,102852.75
2023-02-11T19:21:13.198Z,102855.47
2023-02-11T19:23:40.308Z,102850.16
2023-02-11T19:26:07.392Z,102855.47
2023-02-11T19:28:37.310Z,102854.59
2023-02-11T19:31:09.271Z,102855.56
2023-02-11T19:33:37.070Z,102857.44
2023-02-11T19:36:06.908Z,102862.91
2023-02-11T19:38:34.777Z,102868.22
2023-02-11T19:41:02.365Z,102865.63
2023-02-11T19:43:29.755Z,102864.75
2023-02-11T19:45:57.963Z,102873.63
2023-02-11T19:48:25.867Z,102871.91
2023-02-11T19:50:53.718Z,102864.84
2023-02-11T19:53:21.066Z,102871.16
2023-02-11T19:55:49.390Z,102865.91
2023-02-11T19:58:17.720Z,102871.38
2023-02-11T20:00:44.787Z,102857.22
2023-02-11T20:03:11.858Z,102864.28
2023-02-11T20:05:47.521Z,102874.88
2023-02-11T20:08:17.584Z,102869.59
2023-02-11T20:10:44.978Z,102863.25
2023-02-11T20:13:12.071Z,102867.66
2023-02-11T20:15:39.408Z,102875.56
2023-02-11T20:18:07.327Z,102870.16
2023-02-11T20:20:34.625Z,102868.38
2023-02-11T20:23:01.812Z,102867.34
2023-02-11T20:25:28.843Z,102862.91
2023-02-11T20:27:56.173Z,102869.09
2023-02-11T20:30:23.459Z,102866.44
2023-02-11T20:32:50.370Z,102870.00
2023-02-11T20:35:17.607Z,102871.84
2023-02-11T20:37:45.091Z,102867.34
2023-02-11T20:40:13.859Z,102866.34
2023-02-11T20:42:41.311Z,102869.91
2023-02-11T20:45:09.009Z,102865.31
2023-02-11T20:47:37.986Z,102867.81
2023-02-11T20:50:06.118Z,102879.22
2023-02-11T20:52:34.774Z,102868.50
2023-02-11T20:55:02.248Z,102859.56
2023-02-11T20:57:29.582Z,102870.13
2023-02-11T20:59:58.373Z,102857.72
2023-02-11T21:02:28.230Z,102864.81
2023-02-11T21:04:55.386Z,102870.19
2023-02-11T21:07:23.156Z,102879.06
2023-02-11T21:09:53.791Z,102881.78
2023-02-11T21:12:21.216Z,102876.47
2023-02-11T21:14:48.754Z,102884.53
2023-02-11T21:17:16.219Z,102889.69
2023-02-11T21:19:45.650Z,102895.81
2023-02-11T21:22:13.967Z,102893.06
2023-02-11T21:24:42.448Z,102888.47
2023-02-11T21:27:11.734Z,102893.78
2023-02-11T21:29:53.436Z,102897.22
2023-02-11T21:32:22.934Z,102903.41
2023-02-11T21:34:50.469Z,102896.25
2023-02-11T21:37:18.553Z,102904.13
2023-02-11T21:39:48.247Z,102899.72
2023-02-11T21:42:18.804Z,102908.50
2023-02-11T21:44:46.268Z,102901.38
2023-02-11T21:47:13.967Z,102906.69
2023-02-11T21:49:41.172Z,102914.59
2023-02-11T21:52:08.235Z,102910.16
2023-02-11T21:54:35.906Z,102911.94
2023-02-11T21:57:05.800Z,102918.22
2023-02-11T21:59:33.215Z,102920.19
2023-02-11T22:02:00.359Z,102925.50
2023-02-11T22:04:27.778Z,102928.28
2023-02-11T22:06:58.497Z,102926.44
2023-02-11T22:09:25.918Z,102921.31
2023-02-11T22:11:55.620Z,102917.84
2023-02-11T22:14:22.842Z,102917.69
2023-02-11T22:16:50.235Z,102920.41
2023-02-11T22:19:17.850Z,102917.78
2023-02-11T22:21:45.248Z,102914.31
2023-02-11T22:24:12.296Z,102918.84
2023-02-11T22:26:39.374Z,102918.03
2023-02-11T22:29:06.549Z,102916.50
2023-02-11T22:31:35.422Z,102920.19
2023-02-11T22:34:05.606Z,102916.72
2023-02-11T22:36:38.758Z,102908.78
2023-02-11T22:39:17.857Z,102922.06
2023-02-11T22:41:46.710Z,102923.09
2023-02-11T22:44:14.201Z,102927.63
2023-02-11T22:46:41.473Z,102925.94
2023-02-11T22:49:08.753Z,102919.97
2023-02-11T22:51:35.853Z,102915.63
2023-02-11T22:54:05.810Z,102918.44
2023-02-11T22:56:34.639Z,102923.81
2023-02-11T22:59:06.001Z,102923.03
2023-02-11T23:01:33.350Z,102922.22
2023-02-11T23:04:02.434Z,102933.81
2023-02-11T23:06:29.450Z,102929.47
2023-02-11T23:08:56.615Z,102934.88
2023-02-11T23:11:27.333Z,102931.50
2023-02-11T23:13:55.059Z,102937.66
2023-02-11T23:16:26.151Z,102937.75
2023-02-11T23:18:53.364Z,102935.13
2023-02-11T23:21:26.889Z,102932.59
2023-02-11T23:23:56.446Z,102929.06
2023-02-11T23:26:23.649Z,102923.84
2023-02-11T23:28:50.616Z,102931.00
2023-02-11T23:31:23.615Z,102931.94
2023-02-11T23:33:50.870Z,102939.09
2023-02-11T23:36:19.643Z,102939.16
2023-02-11T23:38:46.920Z,102941.03
2023-02-11T23:41:14.759Z,102935.78
2023-02-11T23:43:41.944Z,102935.84
2023-02-11T23:46:09.669Z,102937.69
2023-02-11T23:48:37.986Z,102939.50
2023-02-11T23:51:05.188Z,102934.28
2023-02-11T23:53:32.108Z,102943.13
2023-02-11T23:55:59.049Z,102945.84
2023-02-11T23:58:25.987Z,102945.00
